Time;durP1;ratioP1;P1;durP2;ratioP2;P2;SDS_P1;SDS_P2;PMS_P1;PMS_P2;Temp;Humidity;BMP_temperature;BMP_pressure;BME280_temperature;BME280_humidity;BME280_pressure;Samples;Min_cycle;Max_cycle;Signal;HPM_P1;HPM_P2
2021/05/17 00:00:40;;;;;;;6.43;3.35;;;16.20;99.90;;;;;;5054840;28;20029;-72
2021/05/17 00:03:08;;;;;;;5.85;3.00;;;16.20;99.90;;;;;;5054682;28;20032;-73
2021/05/17 00:05:34;;;;;;;5.40;2.95;;;16.30;99.90;;;;;;5054715;28;20025;-75
2021/05/17 00:08:00;;;;;;;3.80;3.00;;;16.30;99.90;;;;;;5054948;28;20029;-75
2021/05/17 00:10:27;;;;;;;5.50;3.65;;;16.40;99.90;;;;;;5054853;28;20479;-76
2021/05/17 00:12:53;;;;;;;7.88;3.47;;;16.40;99.90;;;;;;5054699;28;20104;-77
2021/05/17 00:15:21;;;;;;;6.28;3.50;;;16.40;99.90;;;;;;5053458;28;20025;-73
2021/05/17 00:17:47;;;;;;;7.25;4.30;;;16.40;99.90;;;;;;5054455;28;20025;-76
2021/05/17 00:20:15;;;;;;;8.13;4.20;;;16.40;99.90;;;;;;5054765;28;20036;-76
2021/05/17 00:22:42;;;;;;;9.55;4.63;;;16.30;99.90;;;;;;5054753;28;20086;-74
2021/05/17 00:25:09;;;;;;;9.80;4.88;;;16.30;99.90;;;;;;5054360;28;20059;-76
2021/05/17 00:27:35;;;;;;;10.85;5.60;;;16.20;99.90;;;;;;5054006;28;20105;-72
2021/05/17 00:30:01;;;;;;;9.60;5.30;;;16.20;99.90;;;;;;5054472;28;20066;-74
2021/05/17 00:32:27;;;;;;;11.32;5.57;;;16.20;99.90;;;;;;5054424;28;20145;-76
2021/05/17 00:34:55;;;;;;;8.15;4.90;;;16.20;99.90;;;;;;5054359;28;20036;-74
2021/05/17 00:37:22;;;;;;;11.45;4.93;;;16.20;99.90;;;;;;5053937;28;20474;-73
2021/05/17 00:39:48;;;;;;;8.82;5.43;;;16.20;99.90;;;;;;5053991;28;20029;-73
2021/05/17 00:42:14;;;;;;;11.52;5.78;;;16.10;99.90;;;;;;5054133;28;20032;-73
2021/05/17 00:44:41;;;;;;;14.88;5.78;;;16.20;99.90;;;;;;5054106;28;20044;-73
2021/05/17 00:47:12;;;;;;;16.33;6.40;;;16.20;99.90;;;;;;5054180;28;20067;-76
2021/05/17 00:49:40;;;;;;;12.60;6.38;;;16.20;99.90;;;;;;5054089;28;20064;-74
2021/05/17 00:52:08;;;;;;;12.88;5.75;;;16.20;99.90;;;;;;5054024;28;20132;-73
2021/05/17 00:54:34;;;;;;;13.98;5.97;;;16.20;99.90;;;;;;5053949;28;20025;-72
2021/05/17 00:57:00;;;;;;;11.65;5.97;;;16.30;99.90;;;;;;5053958;28;20025;-75
2021/05/17 00:59:26;;;;;;;12.98;6.32;;;16.30;99.90;;;;;;5053391;28;20029;-75
2021/05/17 01:01:52;;;;;;;9.93;6.18;;;16.20;99.90;;;;;;5053650;28;20027;-71
2021/05/17 01:04:18;;;;;;;11.70;5.93;;;16.20;99.90;;;;;;5053900;28;20486;-75
2021/05/17 01:06:47;;;;;;;15.00;7.05;;;16.00;99.90;;;;;;5053028;28;20028;-71
2021/05/17 01:09:15;;;;;;;12.40;6.10;;;16.00;99.90;;;;;;5053199;28;20140;-75
2021/05/17 01:11:41;;;;;;;8.57;5.85;;;16.00;99.90;;;;;;5053202;28;20435;-74
2021/05/17 01:14:09;;;;;;;10.07;6.20;;;16.00;99.90;;;;;;5053530;28;20024;-76
2021/05/17 01:16:35;;;;;;;10.30;5.80;;;16.00;99.90;;;;;;5053488;28;20028;-73
2021/05/17 01:19:05;;;;;;;11.93;5.60;;;16.00;99.90;;;;;;5053401;28;20070;-75
2021/05/17 01:21:36;;;;;;;10.30;5.60;;;16.00;99.90;;;;;;5053713;28;20021;-75
2021/05/17 01:24:03;;;;;;;10.93;5.35;;;15.90;99.90;;;;;;5052125;28;20051;-70
2021/05/17 01:26:31;;;;;;;8.23;4.72;;;16.00;99.90;;;;;;5053241;28;20017;-71
2021/05/17 01:29:00;;;;;;;10.73;5.20;;;16.00;99.90;;;;;;5053022;28;20429;-75
2021/05/17 01:31:26;;;;;;;7.85;5.07;;;16.00;99.90;;;;;;5051925;28;20021;-70
2021/05/17 01:33:52;;;;;;;8.05;5.63;;;16.10;99.90;;;;;;5053415;28;20108;-72
2021/05/17 01:36:19;;;;;;;12.07;5.70;;;16.20;99.90;;;;;;5053271;28;20024;-70
2021/05/17 01:38:47;;;;;;;7.90;5.60;;;16.10;99.90;;;;;;5053510;28;20539;-75
2021/05/17 01:41:16;;;;;;;11.52;5.32;;;16.10;99.90;;;;;;5053115;28;20471;-74
2021/05/17 01:43:47;;;;;;;9.40;5.60;;;16.10;99.90;;;;;;5053003;28;20024;-72
2021/05/17 01:46:20;;;;;;;9.00;5.70;;;16.10;99.90;;;;;;5053175;28;20032;-78
2021/05/17 01:48:47;;;;;;;7.72;5.35;;;16.20;99.90;;;;;;5053199;28;20126;-76
2021/05/17 01:51:16;;;;;;;8.27;4.68;;;16.20;99.90;;;;;;5051943;28;20056;-76
2021/05/17 01:53:44;;;;;;;6.85;5.20;;;16.20;99.90;;;;;;5053314;28;20017;-75
2021/05/17 01:56:11;;;;;;;7.38;4.55;;;16.20;99.90;;;;;;5053250;28;20021;-75
2021/05/17 01:58:38;;;;;;;6.07;4.40;;;16.20;99.90;;;;;;5052945;28;20483;-72
2021/05/17 02:01:09;;;;;;;6.13;3.80;;;16.10;99.90;;;;;;5053017;28;20410;-73
2021/05/17 02:03:37;;;;;;;5.53;3.90;;;16.10;99.90;;;;;;5053404;28;20020;-75
2021/05/17 02:06:05;;;;;;;6.45;4.25;;;16.10;99.90;;;;;;5053861;28;20017;-73
2021/05/17 02:08:33;;;;;;;8.27;4.43;;;16.00;99.90;;;;;;5053043;28;20147;-75
2021/05/17 02:11:00;;;;;;;7.82;4.05;;;16.00;99.90;;;;;;5055494;28;20029;-72
2021/05/17 02:13:28;;;;;;;5.93;3.90;;;16.00;99.90;;;;;;5056973;28;20024;-72
2021/05/17 02:15:54;;;;;;;6.82;4.05;;;16.00;99.90;;;;;;5056984;28;20028;-73
2021/05/17 02:18:20;;;;;;;6.80;4.65;;;16.00;99.90;;;;;;5055635;28;20021;-74
2021/05/17 02:20:47;;;;;;;8.27;4.10;;;;;;;;;;5056550;28;20119;-74
2021/05/17 02:23:15;;;;;;;6.18;4.43;;;15.90;99.90;;;;;;5055029;28;20305;-71
2021/05/17 02:25:46;;;;;;;7.10;4.25;;;15.90;99.90;;;;;;5056844;28;20025;-72
2021/05/17 02:28:13;;;;;;;5.55;3.97;;;15.90;99.90;;;;;;5056412;28;20049;-75
2021/05/17 02:30:40;;;;;;;5.72;4.03;;;15.90;99.90;;;;;;5056861;28;20033;-72
2021/05/17 02:33:06;;;;;;;6.95;3.80;;;16.00;99.90;;;;;;5056993;28;20029;-72
2021/05/17 02:35:34;;;;;;;8.00;3.80;;;15.90;99.90;;;;;;5056209;28;20075;-72
2021/05/17 02:38:01;;;;;;;5.63;3.90;;;15.80;99.90;;;;;;5056498;28;20425;-71
2021/05/17 02:40:27;;;;;;;8.15;4.15;;;15.80;99.90;;;;;;5056599;28;20470;-70
2021/05/17 02:43:00;;;;;;;5.85;3.65;;;15.70;99.90;;;;;;5056494;28;20067;-77
2021/05/17 02:45:28;;;;;;;6.43;3.58;;;15.70;99.90;;;;;;5056801;28;20367;-70
2021/05/17 02:47:55;;;;;;;6.68;3.50;;;15.60;99.90;;;;;;5054893;28;20029;-73
2021/05/17 02:50:39;;;;;;;5.22;3.67;;;15.60;99.90;;;;;;5056363;28;20028;-73
2021/05/17 02:53:29;;;;;;;6.47;3.60;;;15.70;99.90;;;;;;5056667;28;20071;-73
2021/05/17 02:55:58;;;;;;;4.43;3.65;;;15.70;99.90;;;;;;5054824;28;20035;-73
2021/05/17 02:58:30;;;;;;;6.22;4.10;;;15.80;99.90;;;;;;5056204;28;20029;-73
2021/05/17 03:01:42;;;;;;;6.88;3.95;;;15.80;99.90;;;;;;5056475;28;20405;-75
2021/05/17 03:04:18;;;;;;;6.28;4.05;;;15.90;99.90;;;;;;5054208;28;20036;-75
2021/05/17 03:07:10;;;;;;;7.28;4.10;;;15.90;99.90;;;;;;5054955;28;20033;-71
2021/05/17 03:09:37;;;;;;;7.47;4.13;;;15.90;99.90;;;;;;5053985;28;20439;-72
2021/05/17 03:12:04;;;;;;;7.47;4.28;;;15.90;99.90;;;;;;5055948;28;20024;-71
2021/05/17 03:14:31;;;;;;;6.00;4.50;;;15.80;99.90;;;;;;5055795;28;20017;-73
2021/05/17 03:16:59;;;;;;;7.03;4.10;;;15.90;99.90;;;;;;5055778;28;20055;-76
2021/05/17 03:19:25;;;;;;;4.78;3.70;;;15.90;99.90;;;;;;5056431;28;20062;-75
2021/05/17 03:21:58;;;;;;;6.97;4.50;;;15.90;99.90;;;;;;5055458;28;20029;-76
2021/05/17 03:24:24;;;;;;;10.02;4.88;;;16.00;99.90;;;;;;5055126;28;20107;-73
2021/05/17 03:26:53;;;;;;;5.55;4.47;;;15.90;99.90;;;;;;5055300;28;20036;-70
2021/05/17 03:29:19;;;;;;;5.45;4.65;;;15.80;99.90;;;;;;5055736;28;20030;-73
2021/05/17 03:31:45;;;;;;;5.47;4.80;;;15.80;99.90;;;;;;5054748;28;20046;-76
2021/05/17 03:34:11;;;;;;;7.13;4.82;;;15.80;99.90;;;;;;5055535;28;20025;-70
2021/05/17 03:36:40;;;;;;;6.72;4.55;;;15.80;99.90;;;;;;5055854;28;20020;-75
2021/05/17 03:39:06;;;;;;;7.72;4.88;;;15.90;99.90;;;;;;5055582;28;20025;-71
2021/05/17 03:41:32;;;;;;;7.60;5.15;;;15.90;99.90;;;;;;5055421;28;20024;-71
2021/05/17 03:43:58;;;;;;;10.40;5.72;;;15.90;99.90;;;;;;5054906;28;20040;-75
2021/05/17 03:46:26;;;;;;;11.80;5.63;;;15.80;99.90;;;;;;5054369;28;20104;-75
2021/05/17 03:48:52;;;;;;;8.25;5.80;;;15.80;99.90;;;;;;5055128;28;20040;-76
2021/05/17 03:51:18;;;;;;;8.23;5.85;;;15.90;99.90;;;;;;5055146;28;20470;-75
2021/05/17 03:53:44;;;;;;;9.23;5.95;;;15.90;99.90;;;;;;5053787;28;20028;-73
2021/05/17 03:56:10;;;;;;;8.13;5.85;;;15.80;99.90;;;;;;5055150;28;20409;-75
2021/05/17 03:58:36;;;;;;;9.88;6.15;;;15.80;99.90;;;;;;5054738;28;20021;-75
2021/05/17 04:01:02;;;;;;;8.90;6.05;;;15.90;99.90;;;;;;5054807;28;20045;-72
2021/05/17 04:03:29;;;;;;;6.50;5.00;;;15.90;99.90;;;;;;5054939;28;20036;-76
2021/05/17 04:06:15;;;;;;;7.90;4.60;;;16.00;99.90;;;;;;5055051;28;20023;-71
2021/05/17 04:13:58;;;;;;;5.85;4.45;;;16.10;99.90;;;;;;5044230;28;20083;-72
2021/05/17 04:16:24;;;;;;;8.85;5.60;;;16.20;99.90;;;;;;5054872;28;20017;-75
2021/05/17 04:18:51;;;;;;;8.85;6.18;;;16.20;99.90;;;;;;5053584;28;20029;-72
2021/05/17 04:21:18;;;;;;;12.80;6.47;;;16.10;99.90;;;;;;5054029;28;20077;-71
2021/05/17 04:23:44;;;;;;;10.63;6.72;;;16.10;99.90;;;;;;5054634;28;20017;-74
2021/05/17 04:26:10;;;;;;;11.07;5.88;;;16.10;99.90;;;;;;5054483;28;20467;-73
2021/05/17 04:28:36;;;;;;;8.70;6.47;;;16.10;99.90;;;;;;5053942;28;20048;-73
2021/05/17 04:31:02;;;;;;;8.23;6.95;;;16.10;99.90;;;;;;5054380;28;20021;-73
2021/05/17 04:33:28;;;;;;;9.27;6.15;;;16.10;99.90;;;;;;5053789;28;20021;-76
2021/05/17 04:35:54;;;;;;;10.55;7.78;;;16.10;99.90;;;;;;5054176;28;20029;-76
2021/05/17 04:38:20;;;;;;;8.73;6.70;;;16.10;99.90;;;;;;5054799;28;20021;-75
2021/05/17 04:40:47;;;;;;;9.95;6.80;;;16.00;99.90;;;;;;5052931;28;20370;-71
2021/05/17 04:43:13;;;;;;;10.93;8.07;;;16.10;99.90;;;;;;5054512;28;20031;-75
2021/05/17 04:45:39;;;;;;;9.63;6.82;;;15.80;99.90;;;;;;5054131;28;20028;-73
2021/05/17 04:48:06;;;;;;;11.27;7.63;;;15.90;99.90;;;;;;5053981;28;20033;-73
2021/05/17 04:50:32;;;;;;;10.23;7.63;;;16.00;99.90;;;;;;5052832;28;20017;-73
2021/05/17 04:52:58;;;;;;;9.05;7.65;;;16.00;99.90;;;;;;5052758;28;20021;-72
2021/05/17 04:55:23;;;;;;;11.60;8.30;;;16.00;99.90;;;;;;5054103;28;20033;-74
2021/05/17 04:57:49;;;;;;;8.85;7.18;;;15.80;99.90;;;;;;5052678;28;20384;-70
2021/05/17 05:00:16;;;;;;;10.43;7.40;;;15.90;99.90;;;;;;5052433;28;20021;-70
2021/05/17 05:02:42;;;;;;;16.05;8.35;;;15.90;99.90;;;;;;5053403;28;20154;-74
2021/05/17 05:05:09;;;;;;;9.90;7.40;;;15.80;99.90;;;;;;5053870;28;20017;-74
2021/05/17 05:07:35;;;;;;;11.52;7.43;;;15.80;99.90;;;;;;5053672;28;20024;-73
2021/05/17 05:10:01;;;;;;;11.63;8.38;;;16.00;99.90;;;;;;5054189;28;20101;-77
2021/05/17 05:12:27;;;;;;;10.18;7.03;;;15.90;99.90;;;;;;5053658;28;20108;-71
2021/05/17 05:14:53;;;;;;;8.98;6.45;;;16.00;99.90;;;;;;5053818;28;20125;-75
2021/05/17 05:17:19;;;;;;;11.13;7.05;;;16.10;99.90;;;;;;5052246;28;20017;-71
2021/05/17 05:19:45;;;;;;;8.10;6.57;;;16.10;99.90;;;;;;5053736;28;20372;-75
2021/05/17 05:22:11;;;;;;;10.75;7.93;;;16.10;99.90;;;;;;5052278;28;20032;-76
2021/05/17 05:24:37;;;;;;;9.38;8.30;;;16.10;99.90;;;;;;5053521;28;20538;-75
2021/05/17 05:32:38;;;;;;;14.50;9.00;;;16.10;99.90;;;;;;5030794;28;20034;-73
2021/05/17 05:35:04;;;;;;;14.60;9.27;;;16.00;99.90;;;;;;5031875;28;20034;-71
2021/05/17 05:37:30;;;;;;;17.73;12.07;;;15.90;99.90;;;;;;5031320;28;20061;-72
2021/05/17 05:39:56;;;;;;;14.98;11.73;;;15.80;99.90;;;;;;5031516;28;20119;-76
2021/05/17 05:42:24;;;;;;;14.77;11.07;;;15.80;99.90;;;;;;5030801;28;20030;-76
2021/05/17 05:44:51;;;;;;;11.48;8.45;;;15.70;99.90;;;;;;5033449;28;20053;-74
2021/05/17 05:47:17;;;;;;;16.95;10.25;;;15.80;99.90;;;;;;5035248;28;20491;-74
2021/05/17 05:49:47;;;;;;;15.27;10.80;;;15.80;99.90;;;;;;5035447;28;20551;-72
2021/05/17 05:52:15;;;;;;;12.02;9.45;;;15.90;99.90;;;;;;5035650;28;20120;-75
2021/05/17 05:54:41;;;;;;;10.68;7.90;;;15.80;99.90;;;;;;5035392;28;20573;-71
2021/05/17 05:57:08;;;;;;;11.85;9.55;;;15.80;99.90;;;;;;5035265;28;20034;-72
2021/05/17 05:59:35;;;;;;;9.32;8.13;;;15.80;99.90;;;;;;5035249;28;20103;-73
2021/05/17 06:02:01;;;;;;;12.60;8.43;;;15.90;99.90;;;;;;5035074;28;20069;-72
2021/05/17 06:04:27;;;;;;;15.82;10.88;;;16.00;99.90;;;;;;5035139;28;20037;-70
2021/05/17 06:06:52;;;;;;;10.00;8.77;;;16.00;99.90;;;;;;5034789;28;20030;-74
2021/05/17 06:09:18;;;;;;;9.25;8.00;;;16.00;99.90;;;;;;5045269;28;20041;-72
2021/05/17 06:11:44;;;;;;;8.60;6.82;;;16.00;99.90;;;;;;5055987;28;20025;-71
2021/05/17 06:14:12;;;;;;;10.75;8.43;;;16.00;99.90;;;;;;5057002;28;20140;-70
2021/05/17 06:16:38;;;;;;;11.57;8.68;;;16.00;99.90;;;;;;5057231;28;20017;-72
2021/05/17 06:19:05;;;;;;;12.10;9.38;;;16.00;99.90;;;;;;5056983;28;20013;-71
2021/05/17 06:21:31;;;;;;;10.55;8.02;;;16.00;99.90;;;;;;5056044;28;20732;-72
2021/05/17 06:23:58;;;;;;;8.30;6.95;;;16.00;99.90;;;;;;5055472;28;20024;-71
2021/05/17 06:26:26;;;;;;;11.30;7.35;;;15.90;99.90;;;;;;5055290;28;20032;-70
2021/05/17 06:28:52;;;;;;;12.63;8.13;;;15.90;99.90;;;;;;5054632;28;20071;-71
2021/05/17 06:31:19;;;;;;;12.43;8.15;;;15.80;99.90;;;;;;5056741;28;20021;-72
2021/05/17 06:33:47;;;;;;;10.20;7.80;;;15.80;99.90;;;;;;5055580;28;20033;-74
2021/05/17 06:36:15;;;;;;;8.98;7.57;;;15.80;99.90;;;;;;5055930;28;20029;-74
2021/05/17 06:38:40;;;;;;;8.38;7.45;;;15.80;99.90;;;;;;5056329;28;20021;-73
2021/05/17 06:41:08;;;;;;;9.05;7.78;;;15.70;99.90;;;;;;5056592;28;20028;-74
2021/05/17 06:43:35;;;;;;;10.27;7.40;;;15.70;99.90;;;;;;5055135;28;20029;-73
2021/05/17 06:46:03;;;;;;;12.60;8.20;;;15.80;99.90;;;;;;5055101;28;20383;-72
2021/05/17 06:48:29;;;;;;;12.20;8.68;;;15.80;99.90;;;;;;5055692;28;20060;-73
2021/05/17 06:50:55;;;;;;;11.68;8.60;;;15.80;99.90;;;;;;5056225;28;20066;-74
2021/05/17 06:53:22;;;;;;;11.55;8.68;;;15.80;99.90;;;;;;5056030;28;20021;-74
2021/05/17 06:56:01;;;;;;;14.50;8.80;;;15.80;99.90;;;;;;5055413;28;20100;-72
2021/05/17 06:58:34;;;;;;;13.65;10.30;;;15.80;99.90;;;;;;5056137;28;20024;-71
2021/05/17 07:01:01;;;;;;;15.57;11.10;;;15.80;99.90;;;;;;5056231;28;20033;-72
2021/05/17 07:03:27;;;;;;;16.40;10.00;;;15.90;99.90;;;;;;5056075;28;20024;-72
2021/05/17 07:05:58;;;;;;;12.38;10.50;;;16.00;99.90;;;;;;5056022;28;20028;-72
2021/05/17 07:13:55;;;;;;;;;;;15.90;99.90;;;;;;5061881;28;20040;-71
2021/05/17 07:16:21;;;;;;;22.10;18.45;;;15.80;99.90;;;;;;5063530;28;19904;-72
2021/05/17 07:18:47;;;;;;;25.02;20.92;;;15.80;99.90;;;;;;5065555;28;20024;-73
2021/05/17 07:23:40;;;;;;;16.67;13.52;;;15.90;99.90;;;;;;5063982;28;20029;-70
2021/05/17 07:26:13;;;;;;;15.52;13.88;;;15.90;99.90;;;;;;5063695;28;20130;-70
2021/05/17 07:28:39;;;;;;;14.32;12.52;;;15.90;99.90;;;;;;5065115;28;20055;-74
2021/05/17 07:31:07;;;;;;;17.45;14.82;;;16.00;99.90;;;;;;5068113;28;20024;-74
2021/05/17 07:33:33;;;;;;;21.73;13.75;;;16.00;99.90;;;;;;5075470;28;20016;-76
2021/05/17 07:36:01;;;;;;;16.25;11.65;;;16.00;99.90;;;;;;5075468;28;20095;-75
2021/05/17 07:38:29;;;;;;;13.15;10.30;;;16.00;99.90;;;;;;5075453;28;20462;-74
2021/05/17 07:40:56;;;;;;;13.70;10.75;;;15.90;99.90;;;;;;5075400;28;20028;-73
2021/05/17 07:43:22;;;;;;;17.73;13.20;;;15.90;99.90;;;;;;5075014;28;20012;-73
2021/05/17 07:45:48;;;;;;;16.42;13.43;;;15.90;99.90;;;;;;5075207;28;20074;-75
2021/05/17 07:48:15;;;;;;;12.85;9.98;;;15.80;99.90;;;;;;5065974;28;20123;-74
2021/05/17 07:50:41;;;;;;;13.98;10.05;;;15.80;99.90;;;;;;5063197;28;20071;-73
2021/05/17 07:53:07;;;;;;;12.35;9.60;;;15.80;99.90;;;;;;5065053;28;20062;-75
2021/05/17 07:55:33;;;;;;;12.52;9.35;;;15.80;99.90;;;;;;5063423;28;20029;-73
2021/05/17 07:57:59;;;;;;;13.77;9.07;;;15.50;99.90;;;;;;5057637;28;20442;-72
2021/05/17 08:00:25;;;;;;;12.82;8.38;;;15.60;99.90;;;;;;5055011;28;20056;-74
2021/05/17 08:02:51;;;;;;;10.60;8.02;;;15.60;99.90;;;;;;5054908;28;20142;-74
2021/05/17 08:05:17;;;;;;;12.05;9.23;;;15.90;99.90;;;;;;5054569;28;20025;-74
2021/05/17 08:07:44;;;;;;;12.13;8.93;;;16.20;99.90;;;;;;5054137;28;20414;-76
2021/05/17 08:10:11;;;;;;;14.48;9.88;;;16.50;99.90;;;;;;5054926;28;20559;-75
2021/05/17 08:12:37;;;;;;;15.88;10.98;;;16.80;99.90;;;;;;5054655;28;20025;-72
2021/05/17 08:15:04;;;;;;;11.77;10.25;;;17.20;99.90;;;;;;5054919;28;20025;-72
2021/05/17 08:17:31;;;;;;;11.23;9.57;;;17.60;99.90;;;;;;5054505;28;20387;-71
2021/05/17 08:19:57;;;;;;;11.07;8.60;;;18.00;99.90;;;;;;5054796;28;20019;-76
2021/05/17 08:22:23;;;;;;;10.85;6.85;;;18.30;99.90;;;;;;5054751;28;20099;-79
2021/05/17 08:24:49;;;;;;;10.05;6.70;;;18.60;99.90;;;;;;5054410;28;20050;-74
2021/05/17 08:27:15;;;;;;;10.05;6.68;;;18.80;99.90;;;;;;5054081;28;20056;-72
2021/05/17 08:29:41;;;;;;;11.48;7.32;;;19.10;99.90;;;;;;5054522;28;20112;-73
2021/05/17 08:32:09;;;;;;;11.55;7.40;;;18.80;99.90;;;;;;5054608;28;20102;-74
2021/05/17 08:34:36;;;;;;;12.27;9.35;;;18.90;99.90;;;;;;5054169;28;20029;-75
2021/05/17 08:37:04;;;;;;;9.93;6.68;;;18.90;99.90;;;;;;5052617;28;20083;-73
2021/05/17 08:39:30;;;;;;;12.13;6.95;;;18.80;99.90;;;;;;5054008;28;20071;-74
2021/05/17 08:41:58;;;;;;;11.68;7.75;;;18.40;99.90;;;;;;5054053;28;20025;-69
2021/05/17 08:44:25;;;;;;;9.73;6.95;;;18.20;99.90;;;;;;5054290;28;20478;-72
2021/05/17 08:46:51;;;;;;;8.25;4.82;;;18.00;99.90;;;;;;5053954;28;20021;-74
2021/05/17 08:49:18;;;;;;;7.90;4.40;;;17.80;99.90;;;;;;5053992;28;20033;-72
2021/05/17 08:51:45;;;;;;;9.02;5.45;;;17.70;99.90;;;;;;5054003;28;20027;-73
2021/05/17 08:54:12;;;;;;;7.60;4.97;;;17.50;99.90;;;;;;5053869;28;20017;-72
2021/05/17 08:56:46;;;;;;;7.43;5.70;;;17.60;99.90;;;;;;5052118;28;20502;-72
2021/05/17 08:59:15;;;;;;;9.68;7.00;;;17.60;99.90;;;;;;5052588;28;20021;-71
2021/05/17 09:01:42;;;;;;;7.10;4.68;;;17.70;99.90;;;;;;5053909;28;20025;-74
2021/05/17 09:04:14;;;;;;;9.48;5.10;;;17.80;99.90;;;;;;5053853;28;20103;-71
2021/05/17 09:06:49;;;;;;;7.13;6.18;;;17.80;99.90;;;;;;5052531;28;20033;-72
2021/05/17 09:09:36;;;;;;;5.78;4.40;;;17.80;99.90;;;;;;5052315;28;20040;-72
2021/05/17 09:12:11;;;;;;;6.45;4.43;;;17.60;99.90;;;;;;5052568;28;20024;-70
2021/05/17 09:14:38;;;;;;;6.05;4.28;;;17.50;99.90;;;;;;5053728;28;20462;-71
2021/05/17 09:17:07;;;;;;;6.80;4.90;;;17.30;99.90;;;;;;5052203;28;20040;-72
2021/05/17 09:19:34;;;;;;;7.00;5.45;;;17.20;99.90;;;;;;5051920;28;20389;-74
2021/05/17 09:22:10;;;;;;;7.00;5.05;;;17.20;99.90;;;;;;5053383;28;20047;-72
2021/05/17 09:24:54;;;;;;;8.13;4.93;;;17.10;99.90;;;;;;5053475;28;20104;-73
2021/05/17 09:27:28;;;;;;;6.70;4.93;;;17.10;99.90;;;;;;5053208;28;20080;-72
2021/05/17 09:29:56;;;;;;;6.60;4.90;;;17.30;99.90;;;;;;5053253;28;20178;-71
2021/05/17 09:32:24;;;;;;;6.43;4.90;;;17.40;99.90;;;;;;5053681;28;20025;-72
2021/05/17 09:35:05;;;;;;;5.80;4.70;;;17.60;99.90;;;;;;5053335;28;20024;-72
2021/05/17 09:37:50;;;;;;;6.57;4.97;;;17.60;99.90;;;;;;5053479;28;20047;-71
2021/05/17 09:40:19;;;;;;;7.13;5.13;;;17.50;99.90;;;;;;5053366;28;20167;-73
2021/05/17 09:43:05;;;;;;;7.63;4.60;;;17.40;99.90;;;;;;5052005;28;20060;-72
2021/05/17 09:45:39;;;;;;;6.43;4.22;;;17.20;99.90;;;;;;5053212;28;20386;-71
2021/05/17 09:48:09;;;;;;;7.18;4.18;;;17.10;99.90;;;;;;5053252;28;20036;-71
2021/05/17 09:50:56;;;;;;;7.38;5.32;;;17.10;99.90;;;;;;5053278;28;20386;-72
2021/05/17 09:53:24;;;;;;;9.05;5.38;;;17.10;99.90;;;;;;5051903;28;20025;-71
2021/05/17 09:55:50;;;;;;;10.73;6.53;;;17.20;99.90;;;;;;5053578;28;20028;-72
2021/05/17 09:58:36;;;;;;;7.88;4.85;;;17.40;99.90;;;;;;5053372;28;20469;-70
2021/05/17 10:01:09;;;;;;;13.27;6.30;;;17.50;99.90;;;;;;5053138;28;20029;-76
2021/05/17 10:03:55;;;;;;;8.18;5.47;;;17.60;99.90;;;;;;5053215;28;20043;-76
2021/05/17 10:06:26;;;;;;;11.73;6.18;;;17.60;99.90;;;;;;5052315;28;20041;-78
2021/05/17 10:08:55;;;;;;;10.63;6.47;;;17.60;99.90;;;;;;5053001;28;20060;-73
2021/05/17 10:11:23;;;;;;;11.15;8.65;;;17.60;99.90;;;;;;5053040;28;20475;-76
2021/05/17 10:13:49;;;;;;;14.13;8.90;;;17.60;99.90;;;;;;5051764;28;20033;-69
2021/05/17 10:16:17;;;;;;;10.65;7.88;;;17.60;99.90;;;;;;5052810;28;20021;-68
2021/05/17 10:18:44;;;;;;;8.77;5.85;;;17.60;99.90;;;;;;5053222;28;20045;-76
2021/05/17 10:21:18;;;;;;;8.65;6.07;;;17.60;99.90;;;;;;5052532;28;20099;-71
2021/05/17 10:23:46;;;;;;;7.15;4.97;;;17.60;99.90;;;;;;5052866;28;20497;-73
2021/05/17 10:26:20;;;;;;;9.10;5.72;;;17.60;99.90;;;;;;5050907;28;20033;-71
2021/05/17 10:28:54;;;;;;;8.27;4.05;;;17.70;99.90;;;;;;5052226;28;20041;-74
2021/05/17 10:31:22;;;;;;;6.95;4.15;;;17.80;99.90;;;;;;5054262;28;20037;-74
2021/05/17 10:34:06;;;;;;;5.90;4.57;;;17.70;99.90;;;;;;5056613;28;20032;-74
2021/05/17 10:36:56;;;;;;;6.15;5.03;;;17.90;99.90;;;;;;5056672;28;20025;-75
2021/05/17 10:39:38;;;;;;;9.18;5.72;;;18.00;99.90;;;;;;5056462;28;20494;-72
2021/05/17 10:42:31;;;;;;;8.27;4.53;;;18.10;99.90;;;;;;5056580;28;20040;-72
2021/05/17 10:47:48;;;;;;;6.07;4.38;;;18.00;99.90;;;;;;5056349;28;20044;-72
2021/05/17 10:50:21;;;;;;;7.70;5.20;;;18.00;99.90;;;;;;5056313;28;20029;-74
2021/05/17 10:52:48;;;;;;;35.10;20.00;;;18.00;99.90;;;;;;5056309;28;20063;-74
2021/05/17 10:55:16;;;;;;;24.63;15.35;;;18.00;99.90;;;;;;5055973;28;20017;-73
2021/05/17 11:00:32;;;;;;;27.13;16.80;;;17.90;99.90;;;;;;5056031;28;20069;-74
2021/05/17 11:03:16;;;;;;;11.93;6.07;;;17.90;99.90;;;;;;5056200;28;20107;-72
2021/05/17 11:05:45;;;;;;;11.48;6.32;;;17.90;99.90;;;;;;5054658;28;20512;-75
2021/05/17 11:08:14;;;;;;;7.40;5.40;;;17.90;99.90;;;;;;5056125;28;20027;-71
2021/05/17 11:10:57;;;;;;;8.65;6.45;;;17.80;99.90;;;;;;5056116;28;20021;-76
2021/05/17 11:13:29;;;;;;;16.33;8.63;;;17.80;99.90;;;;;;5055875;28;20482;-74
2021/05/17 11:15:57;;;;;;;9.45;5.40;;;17.90;99.90;;;;;;5055720;28;20024;-76
2021/05/17 11:18:34;;;;;;;7.47;5.55;;;18.10;99.90;;;;;;5055747;28;20017;-75
2021/05/17 11:21:05;;;;;;;7.65;5.78;;;18.30;99.90;;;;;;5055550;28;20036;-72
2021/05/17 11:23:31;;;;;;;6.32;4.80;;;18.30;99.90;;;;;;5053592;28;20108;-71
2021/05/17 11:28:43;;;;;;;5.57;4.70;;;18.40;99.90;;;;;;5053795;28;20049;-70
2021/05/17 11:31:15;;;;;;;8.68;6.47;;;18.70;99.90;;;;;;5054065;28;20025;-72
2021/05/17 11:33:54;;;;;;;7.68;5.45;;;19.30;99.90;;;;;;5054144;28;20059;-71
2021/05/17 11:36:34;;;;;;;6.75;4.85;;;20.10;99.90;;;;;;5054057;28;20028;-76
2021/05/17 11:39:10;;;;;;;6.43;4.10;;;20.30;99.90;;;;;;5055493;28;20104;-75
2021/05/17 11:42:01;;;;;;;6.82;5.10;;;20.80;99.90;;;;;;5054397;28;20386;-75
2021/05/17 11:47:47;;;;;;;5.35;3.25;;;21.70;99.90;;;;;;5032966;28;20375;-74
2021/05/17 11:50:13;;;;;;;4.38;2.80;;;21.80;99.90;;;;;;5033244;28;20491;-77
2021/05/17 11:52:38;;;;;;;4.65;2.55;;;21.90;99.90;;;;;;5032716;28;20030;-72
2021/05/17 11:55:08;;;;;;;4.72;2.47;;;22.00;99.90;;;;;;5033201;28;20034;-72
2021/05/17 11:57:41;;;;;;;3.55;2.13;;;21.70;99.90;;;;;;5032800;28;20033;-73
2021/05/17 12:00:12;;;;;;;4.18;2.50;;;21.30;99.90;;;;;;5032562;28;20029;-71
2021/05/17 12:02:53;;;;;;;3.90;1.75;;;21.00;99.90;;;;;;5032984;28;20037;-71
2021/05/17 12:05:24;;;;;;;4.57;1.98;;;20.90;99.90;;;;;;5032811;28;20056;-71
2021/05/17 12:07:55;;;;;;;2.80;1.90;;;20.80;99.90;;;;;;5032796;28;20076;-71
2021/05/17 12:10:31;;;;;;;3.30;2.08;;;20.90;99.90;;;;;;5034187;28;20381;-70
2021/05/17 12:12:57;;;;;;;3.88;2.05;;;20.70;99.90;;;;;;5048964;28;20039;-71
2021/05/17 12:15:24;;;;;;;3.03;2.05;;;20.70;99.90;;;;;;5051619;28;20120;-71
2021/05/17 12:17:49;;;;;;;4.63;2.00;;;20.80;99.90;;;;;;5051402;28;20151;-71
2021/05/17 12:20:17;;;;;;;3.75;2.40;;;20.80;99.90;;;;;;5051328;28;20025;-71
2021/05/17 12:22:48;;;;;;;3.30;2.20;;;20.60;99.90;;;;;;5062590;28;20029;-70
2021/05/17 12:25:20;;;;;;;4.65;2.25;;;20.60;99.90;;;;;;5063504;28;20017;-71
2021/05/17 12:27:48;;;;;;;2.58;2.03;;;20.50;99.90;;;;;;5064040;28;20128;-70
2021/05/17 12:30:16;;;;;;;2.72;1.80;;;20.10;99.90;;;;;;5063332;28;20471;-71
2021/05/17 12:32:49;;;;;;;3.10;2.20;;;20.10;99.90;;;;;;5061805;28;20021;-70
2021/05/17 12:35:32;;;;;;;3.23;2.37;;;20.00;99.90;;;;;;5062817;28;20025;-71
2021/05/17 12:38:03;;;;;;;2.95;2.22;;;19.90;99.90;;;;;;5053996;28;20044;-73
2021/05/17 12:40:34;;;;;;;3.55;2.60;;;19.60;99.90;;;;;;5054283;28;20524;-73
2021/05/17 12:43:09;;;;;;;5.65;3.00;;;19.40;99.90;;;;;;5054533;28;20086;-73
2021/05/17 12:45:38;;;;;;;10.70;4.50;;;19.10;99.90;;;;;;5054948;28;20021;-72
2021/05/17 12:48:18;;;;;;;8.70;4.30;;;18.80;99.90;;;;;;5052855;28;20029;-72
2021/05/17 12:50:46;;;;;;;10.25;5.45;;;18.40;99.90;;;;;;5054113;28;20025;-71
2021/05/17 12:53:18;;;;;;;5.35;3.20;;;18.20;99.90;;;;;;5063833;28;20374;-71
2021/05/17 12:55:49;;;;;;;6.57;3.25;;;17.90;99.90;;;;;;5062896;28;20495;-72
2021/05/17 12:58:31;;;;;;;7.50;3.72;;;17.80;99.90;;;;;;5063927;28;20024;-72
2021/05/17 13:00:58;;;;;;;6.85;3.97;;;17.90;99.90;;;;;;5063700;28;20024;-72
2021/05/17 13:03:27;;;;;;;4.85;2.85;;;17.80;99.90;;;;;;5063025;28;20485;-70
2021/05/17 13:06:10;;;;;;;4.72;2.50;;;17.60;99.90;;;;;;5061568;28;20104;-71
2021/05/17 13:08:36;;;;;;;5.20;2.72;;;17.50;99.90;;;;;;5063749;28;20025;-71
2021/05/17 13:11:03;;;;;;;8.93;4.80;;;17.60;99.90;;;;;;5071675;28;20021;-71
2021/05/17 13:14:00;;;;;;;5.45;3.15;;;17.60;99.90;;;;;;5073568;28;20016;-74
2021/05/17 13:16:28;;;;;;;5.03;2.63;;;17.80;99.90;;;;;;5065124;28;20032;-71
2021/05/17 13:24:55;;;;;;;5.18;2.90;;;18.30;99.90;;;;;;5073980;28;20044;-71
2021/05/17 13:30:06;;;;;;;3.65;2.13;;;19.20;99.90;;;;;;5051581;28;20036;-69
2021/05/17 13:32:35;;;;;;;3.80;1.85;;;19.30;99.90;;;;;;5050186;28;20037;-69